Hauptseite
METAR-TAF:

METAR-TAF

Flughäfen :

Benbecula Airport

Benbecula, Schottland

Breite: 57-28N, Länge: 007-22W, Höhe: 6 m

Beobachtung

Neuester Wetterbericht von vor 28 Minuten, um 18:50 UTC
Wind 14 kt aus West/Südwest
Temperatur 13°C
Luftfeuchtigkeit 88%
Luftdruck 1000 hPa
Sichtweite 10 km oder mehr

METAR: EGPL 251850Z AUTO 24014KT 9999 FEW003/// BKN019/// 13/11 Q1000

Zeit: 20:18 (19:18 UTC)

Prognose

Neuester Wetterbericht von vor 5 Stunden und 19 Minuten, um 13:59 UTC
Gültige Prognose vom 25 um 15 UTC bis 25 um 17 UTC
Wind 12 kt aus Südwest
Sichtweite 10 km oder mehr
Leicht bewölkt in der Höhe von 800 ft
Aufgelockert bewölkt in der Höhe von 1500 ft
Zeitweise
vom 25 um 15 UTC bis 25 um 17 UTC
Sichtweite: 4000 m
Durchbrochene Bewölkung in der Höhe von 600 ft
Regenschauer,

TAF: EGPL 251359Z 2515/2517 23012KT 9999 FEW008 SCT015 TEMPO 2515/2517 4000 SHRA BKN006

Wetterbeobachtungen und Prognosen von mehr als 4000 Flughäfen (METAR und TAF Bericht).

Die verfügbaren Stationen werden durch gelbe und rote Markierungen auf der Karte dargestellt.

Führen Sie die Maus auf sie, um den Namen der Station zu sehen.

Darauf klicken, um die Beobachtung von Wetterbeobachtungen und Prognosen zu sehen.

Um die Karte zu ändern : klicken Sie auf den grünen Tasten mit einem schwarzen Kreuz Zum Vergrößern, auf den grünen Button mit einem Gedankenstrich zu verkleinern, oder auf die grünen Pfeile für benachbarte Karten.


METAR-TAF: